Terminal Aerodrome Forecast
Issued by NWS Chicago, IL

Home | Current Version | Previous Version | Text Only | Print | Product List | Glossary Off
Versions: 1 2 3 4 5 6 7 8 9 10 11 12 13 14 15 16 17 18 19 20 21

000
FTUS43 KLOT 260500 AAA
TAFRFD
TAF AMD
KRFD 260546Z 2606/2706 19012KT P6SM BKN200 WS020/21040KT
     FM261500 19013KT P6SM BKN150
     FM262000 21008KT P6SM SCT020 OVC100
     FM270200 17005KT P6SM OVC015=

USA.gov is the U.S. government's official web portal to all federal, state and local government web resources and services.